AMX420 MMAA-MMMX
Flight info
| Callsign | AMX420 |
|---|---|
| Flight time | 0h 48m |
| Altitude | 20000 |
| Route | ALNUS1B ALNUS UT117 ESPOS ESPOS3A |
| Aircraft | CRJ7/M-SDFGIRWY/S |
Departure
| Time | 2026-04-24 02:06 |
|---|---|
| Airport | General Juan N. Álvarez International Airport (MMAA) |
Arrival
| Time | 2026-04-24 02:54 |
|---|---|
| Airport | Mexico City Benito Juárez International Airport (MMMX) |
| Time | Latitude | Longitude | Altitude | Speed | Heading |
|---|---|---|---|---|---|
| 2026-04-24 01:47 | 16.76122 | -99.75554 | 19 ft | 0 kts | 24° |
| 2026-04-24 01:55 | 16.76118 | -99.75556 | 20 ft | 2 kts | 22° |
| 2026-04-24 01:55 | 16.76104 | -99.75561 | 21 ft | 3 kts | 21° |
| 2026-04-24 01:56 | 16.76091 | -99.75568 | 21 ft | 2 kts | 45° |
| 2026-04-24 01:56 | 16.76087 | -99.75578 | 19 ft | 2 kts | 92° |
| 2026-04-24 01:56 | 16.76088 | -99.75584 | 19 ft | 0 kts | 96° |
| 2026-04-24 01:57 | 16.76087 | -99.75582 | 19 ft | 1 kts | 100° |
| 2026-04-24 01:58 | 16.76075 | -99.75562 | 20 ft | 7 kts | 129° |
| 2026-04-24 01:58 | 16.76045 | -99.75531 | 21 ft | 1 kts | 151° |
| 2026-04-24 01:58 | 16.76028 | -99.75519 | 19 ft | 6 kts | 133° |
| 2026-04-24 01:58 | 16.76015 | -99.75495 | 21 ft | 0 kts | 113° |
| 2026-04-24 01:59 | 16.76009 | -99.75479 | 19 ft | 5 kts | 110° |
| 2026-04-24 01:59 | 16.75990 | -99.75420 | 19 ft | 12 kts | 108° |
| 2026-04-24 01:59 | 16.75929 | -99.75353 | 19 ft | 16 kts | 163° |
| 2026-04-24 01:59 | 16.75877 | -99.75285 | 19 ft | 15 kts | 109° |
| 2026-04-24 02:00 | 16.75840 | -99.75162 | 19 ft | 21 kts | 108° |
| 2026-04-24 02:00 | 16.75790 | -99.75004 | 18 ft | 22 kts | 108° |
| 2026-04-24 02:00 | 16.75740 | -99.74848 | 20 ft | 23 kts | 108° |
| 2026-04-24 02:00 | 16.75690 | -99.74689 | 19 ft | 22 kts | 108° |
| 2026-04-24 02:01 | 16.75644 | -99.74542 | 18 ft | 20 kts | 108° |
| 2026-04-24 02:01 | 16.75600 | -99.74401 | 19 ft | 21 kts | 108° |
| 2026-04-24 02:01 | 16.75563 | -99.74282 | 20 ft | 16 kts | 108° |
| 2026-04-24 02:01 | 16.75530 | -99.74176 | 19 ft | 14 kts | 108° |
| 2026-04-24 02:02 | 16.75498 | -99.74072 | 21 ft | 16 kts | 108° |
| 2026-04-24 02:02 | 16.75463 | -99.73962 | 20 ft | 17 kts | 108° |
| 2026-04-24 02:02 | 16.75428 | -99.73851 | 19 ft | 15 kts | 108° |
| 2026-04-24 02:02 | 16.75394 | -99.73744 | 20 ft | 16 kts | 108° |
| 2026-04-24 02:03 | 16.75322 | -99.73510 | 20 ft | 18 kts | 108° |
| 2026-04-24 02:03 | 16.75282 | -99.73384 | 20 ft | 18 kts | 109° |
| 2026-04-24 02:03 | 16.75212 | -99.73333 | 20 ft | 12 kts | 188° |
| 2026-04-24 02:04 | 16.75177 | -99.73344 | 19 ft | 1 kts | 199° |
| 2026-04-24 02:04 | 16.75173 | -99.73345 | 19 ft | 0 kts | 199° |
| 2026-04-24 02:04 | 16.75170 | -99.73346 | 19 ft | 1 kts | 199° |
| 2026-04-24 02:04 | 16.75123 | -99.73363 | 20 ft | 12 kts | 199° |
| 2026-04-24 02:05 | 16.75092 | -99.73416 | 19 ft | 9 kts | 279° |
| 2026-04-24 02:05 | 16.75094 | -99.73428 | 19 ft | 0 kts | 286° |
| 2026-04-24 02:05 | 16.75129 | -99.73539 | 20 ft | 52 kts | 288° |
| 2026-04-24 02:05 | 16.75331 | -99.74183 | 20 ft | 131 kts | 288° |
| 2026-04-24 02:06 | 16.75677 | -99.75255 | 369 ft | 165 kts | 291° |
| 2026-04-24 02:06 | 16.76045 | -99.76333 | 1433 ft | 156 kts | 291° |
| 2026-04-24 02:06 | 16.76429 | -99.77469 | 2107 ft | 176 kts | 289° |
| 2026-04-24 02:06 | 16.76852 | -99.78814 | 2651 ft | 209 kts | 287° |
| 2026-04-24 02:07 | 16.77291 | -99.80310 | 3606 ft | 224 kts | 286° |
| 2026-04-24 02:07 | 16.77754 | -99.81937 | 4458 ft | 243 kts | 286° |
| 2026-04-24 02:07 | 16.78279 | -99.83648 | 5372 ft | 256 kts | 288° |
| 2026-04-24 02:07 | 16.78862 | -99.85488 | 5812 ft | 280 kts | 288° |
| 2026-04-24 02:08 | 16.79697 | -99.87339 | 5791 ft | 285 kts | 308° |
| 2026-04-24 02:08 | 16.81240 | -99.88606 | 5709 ft | 284 kts | 337° |
| 2026-04-24 02:08 | 16.83108 | -99.89205 | 5760 ft | 281 kts | 346° |
| 2026-04-24 02:08 | 16.85014 | -99.89616 | 5854 ft | 279 kts | 348° |
| 2026-04-24 02:09 | 16.86915 | -99.89988 | 5923 ft | 278 kts | 348° |
| 2026-04-24 02:09 | 16.88802 | -99.90405 | 5958 ft | 277 kts | 346° |
| 2026-04-24 02:09 | 16.90672 | -99.90886 | 5979 ft | 277 kts | 345° |
| 2026-04-24 02:09 | 16.92537 | -99.91409 | 6005 ft | 278 kts | 344° |
| 2026-04-24 02:10 | 16.94408 | -99.91925 | 6017 ft | 283 kts | 347° |
| 2026-04-24 02:10 | 16.96346 | -99.91852 | 6899 ft | 280 kts | 15° |
| 2026-04-24 02:10 | 16.98148 | -99.91058 | 7785 ft | 282 kts | 27° |
| 2026-04-24 02:10 | 16.99848 | -99.90021 | 8656 ft | 284 kts | 31° |
| 2026-04-24 02:11 | 17.01529 | -99.88907 | 9482 ft | 287 kts | 32° |
| 2026-04-24 02:11 | 17.03223 | -99.87779 | 10239 ft | 291 kts | 32° |
| 2026-04-24 02:11 | 17.04989 | -99.86744 | 10964 ft | 293 kts | 18° |
| 2026-04-24 02:11 | 17.06957 | -99.86238 | 11782 ft | 292 kts | 11° |
| 2026-04-24 02:12 | 17.08996 | -99.85861 | 12242 ft | 306 kts | 8° |
| 2026-04-24 02:12 | 17.11183 | -99.85529 | 12473 ft | 328 kts | 7° |
| 2026-04-24 02:12 | 17.13513 | -99.85226 | 12788 ft | 346 kts | 6° |
| 2026-04-24 02:12 | 17.15931 | -99.84923 | 13372 ft | 353 kts | 7° |
| 2026-04-24 02:13 | 17.18377 | -99.84559 | 14051 ft | 357 kts | 8° |
| 2026-04-24 02:13 | 17.20836 | -99.84125 | 14694 ft | 360 kts | 9° |
| 2026-04-24 02:13 | 17.23317 | -99.83670 | 15336 ft | 364 kts | 9° |
| 2026-04-24 02:13 | 17.25823 | -99.83225 | 15955 ft | 367 kts | 9° |
| 2026-04-24 02:14 | 17.28354 | -99.82773 | 16570 ft | 370 kts | 9° |
| 2026-04-24 02:14 | 17.30901 | -99.82321 | 17189 ft | 373 kts | 9° |
| 2026-04-24 02:14 | 17.32603 | -99.82016 | 17591 ft | 376 kts | 9° |
| 2026-04-24 02:14 | 17.35193 | -99.81557 | 18191 ft | 379 kts | 9° |
| 2026-04-24 02:15 | 17.37802 | -99.81091 | 18702 ft | 382 kts | 9° |
| 2026-04-24 02:15 | 17.40432 | -99.80623 | 19204 ft | 385 kts | 9° |
| 2026-04-24 02:15 | 17.43093 | -99.80150 | 19595 ft | 392 kts | 9° |
| 2026-04-24 02:15 | 17.45815 | -99.79664 | 19783 ft | 403 kts | 9° |
| 2026-04-24 02:16 | 17.48626 | -99.79164 | 19871 ft | 415 kts | 9° |
| 2026-04-24 02:16 | 17.51517 | -99.78647 | 19910 ft | 427 kts | 9° |
| 2026-04-24 02:16 | 17.54455 | -99.78123 | 19920 ft | 428 kts | 9° |
| 2026-04-24 02:16 | 17.57388 | -99.77605 | 19923 ft | 427 kts | 9° |
| 2026-04-24 02:17 | 17.60330 | -99.77176 | 19934 ft | 427 kts | 4° |
| 2026-04-24 02:17 | 17.63298 | -99.77109 | 19927 ft | 427 kts | 358° |
| 2026-04-24 02:17 | 17.66231 | -99.77231 | 19923 ft | 427 kts | 357° |
| 2026-04-24 02:17 | 17.69204 | -99.77369 | 19912 ft | 428 kts | 357° |
| 2026-04-24 02:18 | 17.72178 | -99.77493 | 19891 ft | 428 kts | 358° |
| 2026-04-24 02:18 | 17.75156 | -99.77564 | 19889 ft | 428 kts | 359° |
| 2026-04-24 02:18 | 17.78135 | -99.77637 | 19868 ft | 428 kts | 358° |
| 2026-04-24 02:18 | 17.81111 | -99.77720 | 19867 ft | 428 kts | 358° |
| 2026-04-24 02:19 | 17.84092 | -99.77861 | 19864 ft | 429 kts | 357° |
| 2026-04-24 02:19 | 17.87074 | -99.78027 | 19848 ft | 429 kts | 357° |
| 2026-04-24 02:19 | 17.90053 | -99.78184 | 19837 ft | 429 kts | 357° |
| 2026-04-24 02:19 | 17.93036 | -99.78341 | 19838 ft | 429 kts | 357° |
| 2026-04-24 02:20 | 17.96017 | -99.78499 | 19832 ft | 429 kts | 357° |
| 2026-04-24 02:20 | 17.99003 | -99.78660 | 19818 ft | 430 kts | 357° |
| 2026-04-24 02:20 | 18.01994 | -99.78822 | 19815 ft | 430 kts | 357° |
| 2026-04-24 02:20 | 18.04985 | -99.78982 | 19810 ft | 430 kts | 357° |
| 2026-04-24 02:21 | 18.07975 | -99.79141 | 19803 ft | 430 kts | 357° |
| 2026-04-24 02:21 | 18.10962 | -99.79299 | 19801 ft | 430 kts | 357° |
| 2026-04-24 02:21 | 18.13947 | -99.79460 | 19803 ft | 430 kts | 357° |
| 2026-04-24 02:21 | 18.16932 | -99.79619 | 19807 ft | 430 kts | 357° |
| 2026-04-24 02:22 | 18.19926 | -99.79779 | 19801 ft | 430 kts | 357° |
| 2026-04-24 02:22 | 18.22910 | -99.79938 | 19806 ft | 430 kts | 357° |
| 2026-04-24 02:22 | 18.25901 | -99.80099 | 19813 ft | 430 kts | 357° |
| 2026-04-24 02:22 | 18.28890 | -99.80260 | 19816 ft | 430 kts | 357° |
| 2026-04-24 02:23 | 18.31882 | -99.80420 | 19817 ft | 430 kts | 357° |
| 2026-04-24 02:23 | 18.34867 | -99.80580 | 19818 ft | 430 kts | 357° |
| 2026-04-24 02:23 | 18.37857 | -99.80741 | 19826 ft | 430 kts | 357° |
| 2026-04-24 02:23 | 18.40849 | -99.80903 | 19821 ft | 430 kts | 357° |
| 2026-04-24 02:24 | 18.43841 | -99.81063 | 19828 ft | 430 kts | 357° |
| 2026-04-24 02:24 | 18.46827 | -99.81223 | 19826 ft | 430 kts | 356° |
| 2026-04-24 02:24 | 18.49817 | -99.81385 | 19832 ft | 430 kts | 357° |
| 2026-04-24 02:24 | 18.52804 | -99.81545 | 19841 ft | 430 kts | 357° |
| 2026-04-24 02:25 | 18.55794 | -99.81706 | 19840 ft | 430 kts | 356° |
| 2026-04-24 02:25 | 18.58774 | -99.81868 | 19845 ft | 427 kts | 356° |
| 2026-04-24 02:25 | 18.61729 | -99.82026 | 19843 ft | 423 kts | 356° |
| 2026-04-24 02:25 | 18.64658 | -99.82184 | 19857 ft | 419 kts | 356° |
| 2026-04-24 02:26 | 18.67560 | -99.82163 | 19859 ft | 416 kts | 8° |
| 2026-04-24 02:26 | 18.70251 | -99.81113 | 19865 ft | 415 kts | 31° |
| 2026-04-24 02:26 | 18.72482 | -99.79201 | 19875 ft | 414 kts | 42° |
| 2026-04-24 02:26 | 18.74519 | -99.77063 | 19877 ft | 412 kts | 45° |
| 2026-04-24 02:27 | 18.76427 | -99.74817 | 19882 ft | 411 kts | 49° |
| 2026-04-24 02:27 | 18.77879 | -99.72233 | 19879 ft | 411 kts | 65° |
| 2026-04-24 02:27 | 18.78929 | -99.69426 | 19886 ft | 409 kts | 68° |
| 2026-04-24 02:27 | 18.79934 | -99.66649 | 19883 ft | 401 kts | 67° |
| 2026-04-24 02:28 | 18.80979 | -99.63946 | 19881 ft | 394 kts | 65° |
| 2026-04-24 02:28 | 18.82085 | -99.61330 | 19902 ft | 387 kts | 64° |
| 2026-04-24 02:28 | 18.83203 | -99.58758 | 19915 ft | 386 kts | 64° |
| 2026-04-24 02:28 | 18.84308 | -99.56156 | 19926 ft | 390 kts | 64° |
| 2026-04-24 02:29 | 18.85418 | -99.53531 | 19943 ft | 393 kts | 64° |
| 2026-04-24 02:29 | 18.86538 | -99.50885 | 19960 ft | 396 kts | 64° |
| 2026-04-24 02:29 | 18.87663 | -99.48222 | 19977 ft | 398 kts | 64° |
| 2026-04-24 02:29 | 18.88780 | -99.45580 | 19989 ft | 401 kts | 64° |
| 2026-04-24 02:30 | 18.89920 | -99.42881 | 20004 ft | 389 kts | 65° |
| 2026-04-24 02:30 | 18.90986 | -99.40366 | 20013 ft | 371 kts | 64° |
| 2026-04-24 02:30 | 18.92008 | -99.37929 | 20010 ft | 357 kts | 64° |
| 2026-04-24 02:30 | 18.93010 | -99.35548 | 20011 ft | 353 kts | 64° |
| 2026-04-24 02:31 | 18.94004 | -99.33179 | 20017 ft | 354 kts | 64° |
| 2026-04-24 02:31 | 18.94992 | -99.30795 | 20017 ft | 354 kts | 65° |
| 2026-04-24 02:31 | 18.95968 | -99.28407 | 20018 ft | 355 kts | 65° |
| 2026-04-24 02:31 | 18.96943 | -99.26014 | 20013 ft | 355 kts | 65° |
| 2026-04-24 02:32 | 18.97919 | -99.23621 | 20006 ft | 355 kts | 65° |
| 2026-04-24 02:32 | 18.98900 | -99.21222 | 19996 ft | 355 kts | 65° |
| 2026-04-24 02:32 | 18.99881 | -99.18827 | 19987 ft | 355 kts | 65° |
| 2026-04-24 02:32 | 19.00862 | -99.16432 | 19984 ft | 355 kts | 65° |
| 2026-04-24 02:33 | 19.01842 | -99.14038 | 19986 ft | 355 kts | 65° |
| 2026-04-24 02:33 | 19.02824 | -99.11637 | 19975 ft | 356 kts | 65° |
| 2026-04-24 02:33 | 19.03805 | -99.09236 | 19957 ft | 356 kts | 65° |
| 2026-04-24 02:33 | 19.04785 | -99.06832 | 19949 ft | 356 kts | 65° |
| 2026-04-24 02:34 | 19.05767 | -99.04425 | 19938 ft | 356 kts | 65° |
| 2026-04-24 02:34 | 19.06748 | -99.02019 | 19930 ft | 357 kts | 65° |
| 2026-04-24 02:34 | 19.07731 | -98.99614 | 19921 ft | 356 kts | 65° |
| 2026-04-24 02:34 | 19.08717 | -98.97198 | 19917 ft | 361 kts | 65° |
| 2026-04-24 02:35 | 19.09716 | -98.94748 | 19929 ft | 365 kts | 65° |
| 2026-04-24 02:35 | 19.10732 | -98.92253 | 19933 ft | 373 kts | 65° |
| 2026-04-24 02:35 | 19.11687 | -98.89909 | 19948 ft | 379 kts | 65° |
| 2026-04-24 02:35 | 19.12737 | -98.87326 | 19955 ft | 386 kts | 65° |
| 2026-04-24 02:36 | 19.13817 | -98.84705 | 19947 ft | 389 kts | 62° |
| 2026-04-24 02:36 | 19.15124 | -98.82253 | 19508 ft | 381 kts | 55° |
| 2026-04-24 02:36 | 19.16645 | -98.79971 | 18951 ft | 378 kts | 52° |
| 2026-04-24 02:36 | 19.18216 | -98.77752 | 18448 ft | 375 kts | 51° |
| 2026-04-24 02:37 | 19.19763 | -98.75547 | 17914 ft | 372 kts | 52° |
| 2026-04-24 02:37 | 19.21252 | -98.73321 | 17377 ft | 369 kts | 53° |
| 2026-04-24 02:37 | 19.22705 | -98.71096 | 16878 ft | 366 kts | 53° |
| 2026-04-24 02:37 | 19.24153 | -98.68888 | 16395 ft | 363 kts | 53° |
| 2026-04-24 02:38 | 19.25580 | -98.66699 | 15890 ft | 361 kts | 53° |
| 2026-04-24 02:38 | 19.27004 | -98.64527 | 15404 ft | 358 kts | 53° |
| 2026-04-24 02:38 | 19.28411 | -98.62381 | 15121 ft | 350 kts | 53° |
| 2026-04-24 02:38 | 19.29771 | -98.60297 | 14974 ft | 339 kts | 54° |
| 2026-04-24 02:39 | 19.31092 | -98.58276 | 14911 ft | 332 kts | 53° |
| 2026-04-24 02:39 | 19.32425 | -98.56239 | 14881 ft | 340 kts | 54° |
| 2026-04-24 02:39 | 19.33780 | -98.54165 | 14870 ft | 345 kts | 54° |
| 2026-04-24 02:39 | 19.35148 | -98.52064 | 14870 ft | 348 kts | 54° |
| 2026-04-24 02:40 | 19.36534 | -98.49942 | 14871 ft | 351 kts | 54° |
| 2026-04-24 02:40 | 19.37927 | -98.47805 | 14867 ft | 354 kts | 54° |
| 2026-04-24 02:40 | 19.39331 | -98.45656 | 14865 ft | 353 kts | 54° |
| 2026-04-24 02:40 | 19.40955 | -98.43763 | 14840 ft | 345 kts | 33° |
| 2026-04-24 02:41 | 19.43131 | -98.42792 | 14831 ft | 338 kts | 13° |
| 2026-04-24 02:41 | 19.45421 | -98.42294 | 14804 ft | 334 kts | 8° |
| 2026-04-24 02:41 | 19.47713 | -98.41994 | 14781 ft | 331 kts | 2° |
| 2026-04-24 02:41 | 19.49991 | -98.42177 | 14768 ft | 327 kts | 350° |
| 2026-04-24 02:42 | 19.52231 | -98.42577 | 14752 ft | 325 kts | 348° |
| 2026-04-24 02:42 | 19.54450 | -98.43028 | 14755 ft | 324 kts | 348° |
| 2026-04-24 02:42 | 19.56630 | -98.43478 | 14761 ft | 313 kts | 348° |
| 2026-04-24 02:42 | 19.58729 | -98.43863 | 14750 ft | 300 kts | 349° |
| 2026-04-24 02:43 | 19.60756 | -98.44194 | 14738 ft | 289 kts | 349° |
| 2026-04-24 02:43 | 19.62687 | -98.44595 | 14731 ft | 278 kts | 345° |
| 2026-04-24 02:43 | 19.64523 | -98.45100 | 14731 ft | 268 kts | 343° |
| 2026-04-24 02:43 | 19.66289 | -98.45624 | 14727 ft | 259 kts | 342° |
| 2026-04-24 02:44 | 19.67956 | -98.46243 | 14702 ft | 250 kts | 329° |
| 2026-04-24 02:44 | 19.69327 | -98.47337 | 14422 ft | 253 kts | 315° |
| 2026-04-24 02:44 | 19.70283 | -98.48943 | 13895 ft | 268 kts | 287° |
| 2026-04-24 02:44 | 19.70348 | -98.50939 | 13394 ft | 280 kts | 259° |
| 2026-04-24 02:45 | 19.69776 | -98.52954 | 13070 ft | 283 kts | 251° |
| 2026-04-24 02:45 | 19.69051 | -98.54866 | 12804 ft | 283 kts | 249° |
| 2026-04-24 02:45 | 19.68305 | -98.56822 | 12539 ft | 282 kts | 250° |
| 2026-04-24 02:45 | 19.67573 | -98.58746 | 12341 ft | 279 kts | 249° |
| 2026-04-24 02:46 | 19.66830 | -98.60657 | 12031 ft | 281 kts | 249° |
| 2026-04-24 02:46 | 19.66077 | -98.62556 | 11867 ft | 276 kts | 248° |
| 2026-04-24 02:46 | 19.65331 | -98.64408 | 11802 ft | 269 kts | 248° |
| 2026-04-24 02:46 | 19.64612 | -98.66171 | 11828 ft | 259 kts | 248° |
| 2026-04-24 02:47 | 19.63886 | -98.67911 | 11841 ft | 248 kts | 247° |
| 2026-04-24 02:47 | 19.63181 | -98.69552 | 11872 ft | 246 kts | 246° |
| 2026-04-24 02:47 | 19.62456 | -98.71208 | 11895 ft | 249 kts | 246° |
| 2026-04-24 02:47 | 19.61729 | -98.72879 | 11929 ft | 250 kts | 247° |
| 2026-04-24 02:48 | 19.61021 | -98.74539 | 11911 ft | 243 kts | 248° |
| 2026-04-24 02:48 | 19.60361 | -98.76133 | 11912 ft | 235 kts | 248° |
| 2026-04-24 02:48 | 19.59702 | -98.77723 | 11923 ft | 234 kts | 248° |
| 2026-04-24 02:48 | 19.59054 | -98.79291 | 11799 ft | 237 kts | 247° |
| 2026-04-24 02:49 | 19.58305 | -98.80865 | 11498 ft | 240 kts | 242° |
| 2026-04-24 02:49 | 19.57431 | -98.82375 | 11238 ft | 240 kts | 238° |
| 2026-04-24 02:49 | 19.56534 | -98.83843 | 11017 ft | 235 kts | 238° |
| 2026-04-24 02:49 | 19.55654 | -98.85319 | 10663 ft | 234 kts | 238° |
| 2026-04-24 02:50 | 19.54832 | -98.86746 | 10571 ft | 220 kts | 239° |
| 2026-04-24 02:50 | 19.54063 | -98.88124 | 10245 ft | 215 kts | 239° |
| 2026-04-24 02:50 | 19.53325 | -98.89479 | 10069 ft | 210 kts | 240° |
| 2026-04-24 02:50 | 19.52610 | -98.90799 | 9983 ft | 205 kts | 240° |
| 2026-04-24 02:51 | 19.51905 | -98.92094 | 9946 ft | 202 kts | 240° |
| 2026-04-24 02:51 | 19.51193 | -98.93387 | 9828 ft | 207 kts | 240° |
| 2026-04-24 02:51 | 19.50447 | -98.94733 | 9558 ft | 213 kts | 239° |
| 2026-04-24 02:51 | 19.49723 | -98.96030 | 9361 ft | 188 kts | 239° |
| 2026-04-24 02:52 | 19.49119 | -98.97117 | 9203 ft | 157 kts | 239° |
| 2026-04-24 02:52 | 19.48571 | -98.98105 | 9062 ft | 155 kts | 238° |
| 2026-04-24 02:52 | 19.48014 | -98.99101 | 8924 ft | 159 kts | 238° |
| 2026-04-24 02:52 | 19.47448 | -99.00122 | 8746 ft | 163 kts | 237° |
| 2026-04-24 02:53 | 19.46859 | -99.01168 | 8520 ft | 168 kts | 237° |
| 2026-04-24 02:53 | 19.46262 | -99.02200 | 8186 ft | 160 kts | 238° |
| 2026-04-24 02:53 | 19.45697 | -99.03193 | 7844 ft | 157 kts | 238° |
| 2026-04-24 02:53 | 19.45150 | -99.04163 | 7584 ft | 149 kts | 239° |
| 2026-04-24 02:54 | 19.44653 | -99.05088 | 7395 ft | 145 kts | 240° |
| 2026-04-24 02:54 | 19.44170 | -99.05968 | 7299 ft | 121 kts | 239° |
| 2026-04-24 02:54 | 19.43818 | -99.06591 | 7301 ft | 76 kts | 239° |
| 2026-04-24 02:54 | 19.43630 | -99.06927 | 7300 ft | 34 kts | 239° |
| 2026-04-24 02:55 | 19.43602 | -99.06999 | 7300 ft | 5 kts | 280° |
| 2026-04-24 02:55 | 19.43618 | -99.07025 | 7301 ft | 4 kts | 312° |
| 2026-04-24 02:55 | 19.43642 | -99.07051 | 7301 ft | 6 kts | 317° |
| 2026-04-24 02:55 | 19.43683 | -99.07088 | 7301 ft | 9 kts | 319° |
| 2026-04-24 02:56 | 19.43725 | -99.07128 | 7301 ft | 4 kts | 318° |
| 2026-04-24 02:56 | 19.43731 | -99.07134 | 7301 ft | 0 kts | 319° |
| 2026-04-24 02:57 | 19.43750 | -99.07152 | 7301 ft | 5 kts | 319° |
| 2026-04-24 02:57 | 19.43793 | -99.07192 | 7301 ft | 13 kts | 318° |
| 2026-04-24 02:57 | 19.43860 | -99.07256 | 7301 ft | 12 kts | 310° |
| 2026-04-24 02:58 | 19.43858 | -99.07326 | 7301 ft | 13 kts | 240° |
| 2026-04-24 02:58 | 19.43809 | -99.07413 | 7301 ft | 14 kts | 239° |
| 2026-04-24 02:58 | 19.43744 | -99.07529 | 7301 ft | 20 kts | 239° |
| 2026-04-24 02:58 | 19.43676 | -99.07649 | 7301 ft | 18 kts | 239° |
| 2026-04-24 02:59 | 19.43633 | -99.07725 | 7301 ft | 10 kts | 239° |
| 2026-04-24 02:59 | 19.43618 | -99.07787 | 7301 ft | 8 kts | 302° |
| 2026-04-24 02:59 | 19.43661 | -99.07803 | 7301 ft | 6 kts | 22° |
| 2026-04-24 02:59 | 19.43679 | -99.07788 | 7301 ft | 1 kts | 42° |
| 2026-04-24 03:00 | 19.43687 | -99.07782 | 7301 ft | 1 kts | 43° |
| 2026-04-24 03:00 | 19.43693 | -99.07775 | 7301 ft | 1 kts | 43° |